sensor_id;sensor_type;location;lat;lon;timestamp;temperature;humidity
12013;DHT22;6065;48.138;16.402;2023-06-14T00:00:14;17.00;98.70
12013;DHT22;6065;48.138;16.402;2023-06-14T00:02:41;17.00;98.90
12013;DHT22;6065;48.138;16.402;2023-06-14T00:05:08;17.00;98.70
12013;DHT22;6065;48.138;16.402;2023-06-14T00:07:38;17.00;98.70
12013;DHT22;6065;48.138;16.402;2023-06-14T00:10:08;17.00;98.70
12013;DHT22;6065;48.138;16.402;2023-06-14T00:12:35;17.00;98.60
12013;DHT22;6065;48.138;16.402;2023-06-14T00:15:03;17.10;98.40
12013;DHT22;6065;48.138;16.402;2023-06-14T00:17:30;17.10;98.30
12013;DHT22;6065;48.138;16.402;2023-06-14T00:19:57;17.00;98.30
12013;DHT22;6065;48.138;16.402;2023-06-14T00:22:24;17.10;98.40
12013;DHT22;6065;48.138;16.402;2023-06-14T00:24:54;17.00;98.40
12013;DHT22;6065;48.138;16.402;2023-06-14T00:27:21;17.00;98.40
12013;DHT22;6065;48.138;16.402;2023-06-14T00:29:47;17.00;98.40
12013;DHT22;6065;48.138;16.402;2023-06-14T00:32:15;16.90;98.50
12013;DHT22;6065;48.138;16.402;2023-06-14T00:34:42;16.90;98.50
12013;DHT22;6065;48.138;16.402;2023-06-14T00:37:09;16.90;98.50
12013;DHT22;6065;48.138;16.402;2023-06-14T00:39:35;16.90;98.50
12013;DHT22;6065;48.138;16.402;2023-06-14T00:42:02;16.90;98.50
12013;DHT22;6065;48.138;16.402;2023-06-14T00:44:30;16.90;98.60
12013;DHT22;6065;48.138;16.402;2023-06-14T00:46:57;16.80;98.60
12013;DHT22;6065;48.138;16.402;2023-06-14T00:49:25;16.80;98.80
12013;DHT22;6065;48.138;16.402;2023-06-14T00:51:52;16.80;98.80
12013;DHT22;6065;48.138;16.402;2023-06-14T00:54:19;16.80;98.80
12013;DHT22;6065;48.138;16.402;2023-06-14T00:56:45;16.80;98.90
12013;DHT22;6065;48.138;16.402;2023-06-14T00:59:12;16.70;99.00
12013;DHT22;6065;48.138;16.402;2023-06-14T01:01:40;16.80;99.00
12013;DHT22;6065;48.138;16.402;2023-06-14T01:04:07;16.70;99.00
12013;DHT22;6065;48.138;16.402;2023-06-14T01:06:37;16.60;99.10
12013;DHT22;6065;48.138;16.402;2023-06-14T01:09:09;16.60;99.10
12013;DHT22;6065;48.138;16.402;2023-06-14T01:11:41;16.60;99.20
12013;DHT22;6065;48.138;16.402;2023-06-14T01:14:09;16.60;99.20
12013;DHT22;6065;48.138;16.402;2023-06-14T01:16:37;16.60;99.20
12013;DHT22;6065;48.138;16.402;2023-06-14T01:19:05;16.60;99.20
12013;DHT22;6065;48.138;16.402;2023-06-14T01:21:32;16.40;99.20
12013;DHT22;6065;48.138;16.402;2023-06-14T01:24:08;16.40;99.30
12013;DHT22;6065;48.138;16.402;2023-06-14T01:26:36;16.30;99.30
12013;DHT22;6065;48.138;16.402;2023-06-14T01:29:04;16.30;99.40
12013;DHT22;6065;48.138;16.402;2023-06-14T01:31:31;16.30;99.50
12013;DHT22;6065;48.138;16.402;2023-06-14T01:34:06;16.30;99.50
12013;DHT22;6065;48.138;16.402;2023-06-14T01:36:33;16.20;99.60
12013;DHT22;6065;48.138;16.402;2023-06-14T01:39:01;16.20;99.90
12013;DHT22;6065;48.138;16.402;2023-06-14T01:41:29;16.10;99.90
12013;DHT22;6065;48.138;16.402;2023-06-14T01:43:56;16.20;99.90
12013;DHT22;6065;48.138;16.402;2023-06-14T01:46:24;16.10;99.90
12013;DHT22;6065;48.138;16.402;2023-06-14T01:48:51;16.20;99.90
12013;DHT22;6065;48.138;16.402;2023-06-14T01:51:18;16.10;99.90
12013;DHT22;6065;48.138;16.402;2023-06-14T01:53:45;16.10;99.90
12013;DHT22;6065;48.138;16.402;2023-06-14T01:56:12;16.10;99.90
12013;DHT22;6065;48.138;16.402;2023-06-14T01:58:40;16.20;99.90
12013;DHT22;6065;48.138;16.402;2023-06-14T02:01:06;16.10;99.90
12013;DHT22;6065;48.138;16.402;2023-06-14T02:03:33;16.10;99.90
12013;DHT22;6065;48.138;16.402;2023-06-14T02:06:03;16.10;99.90
12013;DHT22;6065;48.138;16.402;2023-06-14T02:08:30;16.10;99.90
12013;DHT22;6065;48.138;16.402;2023-06-14T02:10:56;16.20;99.90
12013;DHT22;6065;48.138;16.402;2023-06-14T02:13:23;16.20;99.90
12013;DHT22;6065;48.138;16.402;2023-06-14T02:15:51;16.20;99.90
12013;DHT22;6065;48.138;16.402;2023-06-14T02:18:19;16.10;99.90
12013;DHT22;6065;48.138;16.402;2023-06-14T02:20:46;16.10;99.90
12013;DHT22;6065;48.138;16.402;2023-06-14T02:23:15;16.10;99.90
12013;DHT22;6065;48.138;16.402;2023-06-14T02:25:42;16.00;99.90
12013;DHT22;6065;48.138;16.402;2023-06-14T02:28:10;15.90;99.90
12013;DHT22;6065;48.138;16.402;2023-06-14T02:30:37;16.00;99.90
12013;DHT22;6065;48.138;16.402;2023-06-14T02:33:05;16.00;99.90
12013;DHT22;6065;48.138;16.402;2023-06-14T02:35:32;15.90;99.90
12013;DHT22;6065;48.138;16.402;2023-06-14T02:37:58;15.90;99.90
12013;DHT22;6065;48.138;16.402;2023-06-14T02:40:26;15.90;99.90
12013;DHT22;6065;48.138;16.402;2023-06-14T02:42:52;15.90;99.90
12013;DHT22;6065;48.138;16.402;2023-06-14T02:45:19;15.90;99.90
12013;DHT22;6065;48.138;16.402;2023-06-14T02:47:46;15.90;99.90
12013;DHT22;6065;48.138;16.402;2023-06-14T02:50:14;16.00;99.90
12013;DHT22;6065;48.138;16.402;2023-06-14T02:52:41;15.90;99.90
12013;DHT22;6065;48.138;16.402;2023-06-14T02:55:09;16.00;99.90
12013;DHT22;6065;48.138;16.402;2023-06-14T02:57:36;15.90;99.90
12013;DHT22;6065;48.138;16.402;2023-06-14T03:00:03;16.00;99.90
12013;DHT22;6065;48.138;16.402;2023-06-14T03:02:30;16.00;99.90
12013;DHT22;6065;48.138;16.402;2023-06-14T03:04:57;16.00;99.90
12013;DHT22;6065;48.138;16.402;2023-06-14T03:07:28;15.90;99.90
12013;DHT22;6065;48.138;16.402;2023-06-14T03:09:55;15.70;99.90
12013;DHT22;6065;48.138;16.402;2023-06-14T03:12:22;15.70;99.90
12013;DHT22;6065;48.138;16.402;2023-06-14T03:14:49;15.70;99.90
12013;DHT22;6065;48.138;16.402;2023-06-14T03:17:16;15.70;99.90
12013;DHT22;6065;48.138;16.402;2023-06-14T03:19:45;15.80;99.90
12013;DHT22;6065;48.138;16.402;2023-06-14T03:22:11;15.80;99.90
12013;DHT22;6065;48.138;16.402;2023-06-14T03:24:39;15.80;99.90
12013;DHT22;6065;48.138;16.402;2023-06-14T03:27:06;15.80;99.90
12013;DHT22;6065;48.138;16.402;2023-06-14T03:29:35;15.80;99.90
12013;DHT22;6065;48.138;16.402;2023-06-14T03:32:02;15.80;99.90
12013;DHT22;6065;48.138;16.402;2023-06-14T03:34:29;15.80;99.90
12013;DHT22;6065;48.138;16.402;2023-06-14T03:36:56;15.80;99.90
12013;DHT22;6065;48.138;16.402;2023-06-14T03:39:22;15.80;99.90
12013;DHT22;6065;48.138;16.402;2023-06-14T03:41:50;15.80;99.90
12013;DHT22;6065;48.138;16.402;2023-06-14T03:44:17;15.80;99.90
12013;DHT22;6065;48.138;16.402;2023-06-14T03:46:44;15.80;99.90
12013;DHT22;6065;48.138;16.402;2023-06-14T03:49:12;15.70;99.90
12013;DHT22;6065;48.138;16.402;2023-06-14T03:51:39;15.70;99.90
12013;DHT22;6065;48.138;16.402;2023-06-14T03:54:06;15.70;99.90
12013;DHT22;6065;48.138;16.402;2023-06-14T03:56:33;15.60;99.90
12013;DHT22;6065;48.138;16.402;2023-06-14T03:59:01;15.60;99.90
12013;DHT22;6065;48.138;16.402;2023-06-14T04:01:28;15.60;99.90
12013;DHT22;6065;48.138;16.402;2023-06-14T04:03:56;15.60;99.90
12013;DHT22;6065;48.138;16.402;2023-06-14T04:06:23;15.70;99.90
12013;DHT22;6065;48.138;16.402;2023-06-14T04:08:57;15.60;99.90
12013;DHT22;6065;48.138;16.402;2023-06-14T04:11:26;15.60;99.90
12013;DHT22;6065;48.138;16.402;2023-06-14T04:13:53;15.60;99.90
12013;DHT22;6065;48.138;16.402;2023-06-14T04:16:23;15.70;99.90
12013;DHT22;6065;48.138;16.402;2023-06-14T04:18:49;15.70;99.90
12013;DHT22;6065;48.138;16.402;2023-06-14T04:21:17;15.70;99.90
12013;DHT22;6065;48.138;16.402;2023-06-14T04:23:44;15.70;99.90
12013;DHT22;6065;48.138;16.402;2023-06-14T04:26:11;15.70;99.90
12013;DHT22;6065;48.138;16.402;2023-06-14T04:28:37;15.70;99.90
12013;DHT22;6065;48.138;16.402;2023-06-14T04:31:06;15.80;99.90
12013;DHT22;6065;48.138;16.402;2023-06-14T04:33:35;15.80;99.90
12013;DHT22;6065;48.138;16.402;2023-06-14T04:36:08;15.80;99.90
12013;DHT22;6065;48.138;16.402;2023-06-14T04:38:37;15.90;99.90
12013;DHT22;6065;48.138;16.402;2023-06-14T04:41:03;15.90;99.90
12013;DHT22;6065;48.138;16.402;2023-06-14T04:43:31;16.00;99.90
12013;DHT22;6065;48.138;16.402;2023-06-14T04:46:03;16.00;99.90
12013;DHT22;6065;48.138;16.402;2023-06-14T04:48:31;16.10;99.90
12013;DHT22;6065;48.138;16.402;2023-06-14T04:50:59;16.10;99.90
12013;DHT22;6065;48.138;16.402;2023-06-14T04:53:25;16.00;99.90
12013;DHT22;6065;48.138;16.402;2023-06-14T04:55:54;16.10;99.90
12013;DHT22;6065;48.138;16.402;2023-06-14T04:58:21;16.10;99.90
12013;DHT22;6065;48.138;16.402;2023-06-14T05:00:48;16.20;99.90
12013;DHT22;6065;48.138;16.402;2023-06-14T05:03:14;16.20;99.90
12013;DHT22;6065;48.138;16.402;2023-06-14T05:05:44;16.30;99.90
12013;DHT22;6065;48.138;16.402;2023-06-14T05:08:12;16.40;99.90
12013;DHT22;6065;48.138;16.402;2023-06-14T05:10:39;16.50;99.90
12013;DHT22;6065;48.138;16.402;2023-06-14T05:13:05;16.60;99.90
12013;DHT22;6065;48.138;16.402;2023-06-14T05:15:32;16.60;99.90
12013;DHT22;6065;48.138;16.402;2023-06-14T05:17:59;16.60;99.90
12013;DHT22;6065;48.138;16.402;2023-06-14T05:20:26;16.60;99.90
12013;DHT22;6065;48.138;16.402;2023-06-14T05:22:52;16.60;99.90
12013;DHT22;6065;48.138;16.402;2023-06-14T05:25:20;16.60;99.90
12013;DHT22;6065;48.138;16.402;2023-06-14T05:27:47;16.50;99.90
12013;DHT22;6065;48.138;16.402;2023-06-14T05:30:14;16.40;99.90
12013;DHT22;6065;48.138;16.402;2023-06-14T05:32:41;16.30;99.90
12013;DHT22;6065;48.138;16.402;2023-06-14T05:35:08;16.30;99.90
12013;DHT22;6065;48.138;16.402;2023-06-14T05:37:35;16.30;99.90
12013;DHT22;6065;48.138;16.402;2023-06-14T05:40:02;16.40;99.90
12013;DHT22;6065;48.138;16.402;2023-06-14T05:42:32;16.50;99.90
12013;DHT22;6065;48.138;16.402;2023-06-14T05:44:59;16.50;99.90
12013;DHT22;6065;48.138;16.402;2023-06-14T05:47:25;16.60;99.90
12013;DHT22;6065;48.138;16.402;2023-06-14T05:49:53;16.70;99.90
12013;DHT22;6065;48.138;16.402;2023-06-14T05:52:19;16.80;99.90
12013;DHT22;6065;48.138;16.402;2023-06-14T05:54:46;16.90;99.90
12013;DHT22;6065;48.138;16.402;2023-06-14T05:57:13;17.00;99.90
12013;DHT22;6065;48.138;16.402;2023-06-14T05:59:41;17.10;99.90
12013;DHT22;6065;48.138;16.402;2023-06-14T06:02:08;17.10;99.90
12013;DHT22;6065;48.138;16.402;2023-06-14T06:04:34;17.10;99.90
12013;DHT22;6065;48.138;16.402;2023-06-14T06:07:01;17.10;99.90
12013;DHT22;6065;48.138;16.402;2023-06-14T06:09:29;17.10;99.50
12013;DHT22;6065;48.138;16.402;2023-06-14T06:11:55;17.10;99.50
12013;DHT22;6065;48.138;16.402;2023-06-14T06:14:22;17.10;99.70
12013;DHT22;6065;48.138;16.402;2023-06-14T06:16:50;17.10;99.60
12013;DHT22;6065;48.138;16.402;2023-06-14T06:19:17;17.20;99.60
12013;DHT22;6065;48.138;16.402;2023-06-14T06:21:44;17.30;99.80
12013;DHT22;6065;48.138;16.402;2023-06-14T06:24:11;17.40;99.90
12013;DHT22;6065;48.138;16.402;2023-06-14T06:26:38;17.50;99.90
12013;DHT22;6065;48.138;16.402;2023-06-14T06:29:05;17.50;99.60
12013;DHT22;6065;48.138;16.402;2023-06-14T06:31:32;17.60;99.60
12013;DHT22;6065;48.138;16.402;2023-06-14T06:34:00;17.60;99.60
12013;DHT22;6065;48.138;16.402;2023-06-14T06:36:27;17.70;99.60
12013;DHT22;6065;48.138;16.402;2023-06-14T06:38:53;17.70;99.70
12013;DHT22;6065;48.138;16.402;2023-06-14T06:41:20;17.80;99.50
12013;DHT22;6065;48.138;16.402;2023-06-14T06:43:47;17.90;99.40
12013;DHT22;6065;48.138;16.402;2023-06-14T06:46:14;17.90;98.90
12013;DHT22;6065;48.138;16.402;2023-06-14T06:48:40;17.90;98.70
12013;DHT22;6065;48.138;16.402;2023-06-14T06:51:11;17.90;98.80
12013;DHT22;6065;48.138;16.402;2023-06-14T06:53:39;18.00;99.00
12013;DHT22;6065;48.138;16.402;2023-06-14T06:56:05;18.00;98.60
12013;DHT22;6065;48.138;16.402;2023-06-14T06:58:32;18.10;99.00
12013;DHT22;6065;48.138;16.402;2023-06-14T07:00:59;18.10;99.00
12013;DHT22;6065;48.138;16.402;2023-06-14T07:03:26;18.20;98.90
12013;DHT22;6065;48.138;16.402;2023-06-14T07:05:52;18.20;98.50
12013;DHT22;6065;48.138;16.402;2023-06-14T07:08:20;18.30;98.20
12013;DHT22;6065;48.138;16.402;2023-06-14T07:10:47;18.30;98.20
12013;DHT22;6065;48.138;16.402;2023-06-14T07:13:14;18.40;98.10
12013;DHT22;6065;48.138;16.402;2023-06-14T07:15:41;18.50;97.90
12013;DHT22;6065;48.138;16.402;2023-06-14T07:18:07;18.50;98.00
12013;DHT22;6065;48.138;16.402;2023-06-14T07:20:34;18.50;98.00
12013;DHT22;6065;48.138;16.402;2023-06-14T07:23:03;18.50;98.00
12013;DHT22;6065;48.138;16.402;2023-06-14T07:25:31;18.40;97.70
12013;DHT22;6065;48.138;16.402;2023-06-14T07:27:58;18.50;98.10
12013;DHT22;6065;48.138;16.402;2023-06-14T07:30:25;18.50;98.20
12013;DHT22;6065;48.138;16.402;2023-06-14T07:32:52;18.60;98.20
12013;DHT22;6065;48.138;16.402;2023-06-14T07:35:19;18.60;98.30
12013;DHT22;6065;48.138;16.402;2023-06-14T07:37:46;18.60;98.20
12013;DHT22;6065;48.138;16.402;2023-06-14T07:40:13;18.70;98.00
12013;DHT22;6065;48.138;16.402;2023-06-14T07:42:41;18.70;97.40
12013;DHT22;6065;48.138;16.402;2023-06-14T07:45:08;18.70;97.10
12013;DHT22;6065;48.138;16.402;2023-06-14T07:47:35;18.80;98.30
12013;DHT22;6065;48.138;16.402;2023-06-14T07:50:02;18.90;97.80
12013;DHT22;6065;48.138;16.402;2023-06-14T07:52:29;18.90;97.70
12013;DHT22;6065;48.138;16.402;2023-06-14T07:54:56;19.00;97.80
12013;DHT22;6065;48.138;16.402;2023-06-14T07:57:23;19.00;97.00
12013;DHT22;6065;48.138;16.402;2023-06-14T07:59:53;19.00;97.10
12013;DHT22;6065;48.138;16.402;2023-06-14T08:02:20;19.00;97.10
12013;DHT22;6065;48.138;16.402;2023-06-14T08:04:46;19.00;97.40
12013;DHT22;6065;48.138;16.402;2023-06-14T08:07:14;19.00;97.20
12013;DHT22;6065;48.138;16.402;2023-06-14T08:09:40;19.00;96.50
12013;DHT22;6065;48.138;16.402;2023-06-14T08:12:07;19.00;96.60
12013;DHT22;6065;48.138;16.402;2023-06-14T08:14:35;19.00;96.80
12013;DHT22;6065;48.138;16.402;2023-06-14T08:17:03;19.00;97.10
12013;DHT22;6065;48.138;16.402;2023-06-14T08:19:30;19.10;97.40
12013;DHT22;6065;48.138;16.402;2023-06-14T08:21:57;19.20;97.40
12013;DHT22;6065;48.138;16.402;2023-06-14T08:24:25;19.30;98.00
12013;DHT22;6065;48.138;16.402;2023-06-14T08:26:52;19.30;97.10
12013;DHT22;6065;48.138;16.402;2023-06-14T08:29:19;19.40;97.80
12013;DHT22;6065;48.138;16.402;2023-06-14T08:31:46;19.40;96.80
12013;DHT22;6065;48.138;16.402;2023-06-14T08:34:15;19.60;97.70
12013;DHT22;6065;48.138;16.402;2023-06-14T08:36:41;19.60;97.00
12013;DHT22;6065;48.138;16.402;2023-06-14T08:39:08;19.60;96.70
12013;DHT22;6065;48.138;16.402;2023-06-14T08:41:35;19.60;96.70
12013;DHT22;6065;48.138;16.402;2023-06-14T08:44:02;19.70;96.60
12013;DHT22;6065;48.138;16.402;2023-06-14T08:46:29;19.80;96.40
12013;DHT22;6065;48.138;16.402;2023-06-14T08:48:58;19.90;96.70
12013;DHT22;6065;48.138;16.402;2023-06-14T08:51:26;19.90;96.80
12013;DHT22;6065;48.138;16.402;2023-06-14T08:53:59;20.00;96.70
12013;DHT22;6065;48.138;16.402;2023-06-14T08:56:27;20.10;96.30
12013;DHT22;6065;48.138;16.402;2023-06-14T08:58:54;20.10;96.10
12013;DHT22;6065;48.138;16.402;2023-06-14T09:01:21;20.10;96.00
12013;DHT22;6065;48.138;16.402;2023-06-14T09:03:48;20.10;96.40
12013;DHT22;6065;48.138;16.402;2023-06-14T09:06:15;20.20;96.30
12013;DHT22;6065;48.138;16.402;2023-06-14T09:08:46;20.30;96.60
12013;DHT22;6065;48.138;16.402;2023-06-14T09:11:14;20.40;96.60
12013;DHT22;6065;48.138;16.402;2023-06-14T09:13:41;20.40;96.40
12013;DHT22;6065;48.138;16.402;2023-06-14T09:16:08;20.50;96.50
12013;DHT22;6065;48.138;16.402;2023-06-14T09:18:35;20.50;95.90
12013;DHT22;6065;48.138;16.402;2023-06-14T09:21:02;20.50;95.70
12013;DHT22;6065;48.138;16.402;2023-06-14T09:23:29;20.60;95.60
12013;DHT22;6065;48.138;16.402;2023-06-14T09:26:01;20.60;96.10
12013;DHT22;6065;48.138;16.402;2023-06-14T09:28:28;20.60;95.90
12013;DHT22;6065;48.138;16.402;2023-06-14T09:30:54;20.70;95.70
12013;DHT22;6065;48.138;16.402;2023-06-14T09:33:21;20.70;96.20
12013;DHT22;6065;48.138;16.402;2023-06-14T09:35:50;20.70;96.20
12013;DHT22;6065;48.138;16.402;2023-06-14T09:38:17;20.70;96.00
12013;DHT22;6065;48.138;16.402;2023-06-14T09:40:44;20.80;95.30
12013;DHT22;6065;48.138;16.402;2023-06-14T09:43:12;20.80;95.00
12013;DHT22;6065;48.138;16.402;2023-06-14T09:45:39;20.90;95.20
12013;DHT22;6065;48.138;16.402;2023-06-14T09:48:06;21.00;95.50
12013;DHT22;6065;48.138;16.402;2023-06-14T09:50:33;21.10;95.10
12013;DHT22;6065;48.138;16.402;2023-06-14T09:53:01;21.20;95.50
12013;DHT22;6065;48.138;16.402;2023-06-14T09:55:29;21.20;96.40
12013;DHT22;6065;48.138;16.402;2023-06-14T09:57:57;21.30;95.50
12013;DHT22;6065;48.138;16.402;2023-06-14T10:00:25;21.30;94.80
12013;DHT22;6065;48.138;16.402;2023-06-14T10:02:54;21.30;95.40
12013;DHT22;6065;48.138;16.402;2023-06-14T10:05:25;21.30;95.30
12013;DHT22;6065;48.138;16.402;2023-06-14T10:07:55;21.40;95.30
12013;DHT22;6065;48.138;16.402;2023-06-14T10:10:22;21.50;95.30
12013;DHT22;6065;48.138;16.402;2023-06-14T10:12:49;21.60;94.30
12013;DHT22;6065;48.138;16.402;2023-06-14T10:15:22;21.70;95.10
12013;DHT22;6065;48.138;16.402;2023-06-14T10:17:52;21.80;94.60
12013;DHT22;6065;48.138;16.402;2023-06-14T10:20:23;21.90;93.90
12013;DHT22;6065;48.138;16.402;2023-06-14T10:22:54;21.90;94.50
12013;DHT22;6065;48.138;16.402;2023-06-14T10:25:26;22.00;95.90
12013;DHT22;6065;48.138;16.402;2023-06-14T10:28:01;22.10;93.60
12013;DHT22;6065;48.138;16.402;2023-06-14T10:30:28;22.20;93.10
12013;DHT22;6065;48.138;16.402;2023-06-14T10:33:06;22.20;92.90
12013;DHT22;6065;48.138;16.402;2023-06-14T10:35:33;22.20;93.00
12013;DHT22;6065;48.138;16.402;2023-06-14T10:38:07;22.10;92.20
12013;DHT22;6065;48.138;16.402;2023-06-14T10:40:34;22.20;92.70
12013;DHT22;6065;48.138;16.402;2023-06-14T10:43:01;22.20;94.10
12013;DHT22;6065;48.138;16.402;2023-06-14T10:45:27;22.30;92.30
12013;DHT22;6065;48.138;16.402;2023-06-14T10:47:57;22.40;93.10
12013;DHT22;6065;48.138;16.402;2023-06-14T10:50:28;22.40;92.70
12013;DHT22;6065;48.138;16.402;2023-06-14T10:52:56;22.50;92.20
12013;DHT22;6065;48.138;16.402;2023-06-14T10:55:22;22.50;91.80
12013;DHT22;6065;48.138;16.402;2023-06-14T10:57:50;22.60;91.10
12013;DHT22;6065;48.138;16.402;2023-06-14T11:00:18;22.70;91.90
12013;DHT22;6065;48.138;16.402;2023-06-14T11:05:30;22.80;92.10
12013;DHT22;6065;48.138;16.402;2023-06-14T11:08:15;23.00;91.10
12013;DHT22;6065;48.138;16.402;2023-06-14T11:10:44;23.10;91.20
12013;DHT22;6065;48.138;16.402;2023-06-14T11:13:11;23.10;91.30
12013;DHT22;6065;48.138;16.402;2023-06-14T11:15:38;23.20;90.70
12013;DHT22;6065;48.138;16.402;2023-06-14T11:18:09;23.30;91.60
12013;DHT22;6065;48.138;16.402;2023-06-14T11:20:38;23.30;90.90
12013;DHT22;6065;48.138;16.402;2023-06-14T11:23:05;23.30;91.20
12013;DHT22;6065;48.138;16.402;2023-06-14T11:25:32;23.30;91.90
12013;DHT22;6065;48.138;16.402;2023-06-14T11:27:59;23.30;91.50
12013;DHT22;6065;48.138;16.402;2023-06-14T11:30:25;23.40;91.40
12013;DHT22;6065;48.138;16.402;2023-06-14T11:32:53;23.40;91.30
12013;DHT22;6065;48.138;16.402;2023-06-14T11:35:21;23.50;91.20
12013;DHT22;6065;48.138;16.402;2023-06-14T11:37:50;23.60;91.20
12013;DHT22;6065;48.138;16.402;2023-06-14T11:40:19;23.70;91.20
12013;DHT22;6065;48.138;16.402;2023-06-14T11:42:46;23.80;90.80
12013;DHT22;6065;48.138;16.402;2023-06-14T11:45:12;23.80;90.90
12013;DHT22;6065;48.138;16.402;2023-06-14T11:47:39;23.90;91.60
12013;DHT22;6065;48.138;16.402;2023-06-14T11:50:06;24.00;90.10
12013;DHT22;6065;48.138;16.402;2023-06-14T11:52:33;24.00;89.00
12013;DHT22;6065;48.138;16.402;2023-06-14T11:55:02;24.00;91.00
12013;DHT22;6065;48.138;16.402;2023-06-14T11:57:30;24.20;90.20
12013;DHT22;6065;48.138;16.402;2023-06-14T12:00:00;24.30;90.70
12013;DHT22;6065;48.138;16.402;2023-06-14T12:02:26;24.40;89.70
12013;DHT22;6065;48.138;16.402;2023-06-14T12:04:54;24.40;90.10
12013;DHT22;6065;48.138;16.402;2023-06-14T12:07:22;24.50;89.10
12013;DHT22;6065;48.138;16.402;2023-06-14T12:10:08;24.50;89.20
12013;DHT22;6065;48.138;16.402;2023-06-14T12:12:36;24.50;89.00
12013;DHT22;6065;48.138;16.402;2023-06-14T12:15:04;24.60;91.30
12013;DHT22;6065;48.138;16.402;2023-06-14T12:17:32;24.60;89.70
12013;DHT22;6065;48.138;16.402;2023-06-14T12:19:59;24.60;90.00
12013;DHT22;6065;48.138;16.402;2023-06-14T12:22:25;24.60;88.90
12013;DHT22;6065;48.138;16.402;2023-06-14T12:24:55;24.50;88.00
12013;DHT22;6065;48.138;16.402;2023-06-14T12:27:24;24.40;88.90
12013;DHT22;6065;48.138;16.402;2023-06-14T12:30:00;24.30;89.60
12013;DHT22;6065;48.138;16.402;2023-06-14T12:32:27;24.20;89.50
12013;DHT22;6065;48.138;16.402;2023-06-14T12:34:54;24.20;89.40
12013;DHT22;6065;48.138;16.402;2023-06-14T12:37:21;24.10;88.50
12013;DHT22;6065;48.138;16.402;2023-06-14T12:39:49;24.00;89.40
12013;DHT22;6065;48.138;16.402;2023-06-14T12:42:16;23.90;88.80
12013;DHT22;6065;48.138;16.402;2023-06-14T12:44:45;23.80;89.90
12013;DHT22;6065;48.138;16.402;2023-06-14T12:47:11;23.70;90.00
12013;DHT22;6065;48.138;16.402;2023-06-14T12:49:39;23.60;90.20
12013;DHT22;6065;48.138;16.402;2023-06-14T12:52:07;23.60;90.10
12013;DHT22;6065;48.138;16.402;2023-06-14T12:54:34;23.50;89.60
12013;DHT22;6065;48.138;16.402;2023-06-14T12:57:01;23.50;90.50
12013;DHT22;6065;48.138;16.402;2023-06-14T12:59:28;23.50;90.60
12013;DHT22;6065;48.138;16.402;2023-06-14T13:02:01;23.50;90.30
12013;DHT22;6065;48.138;16.402;2023-06-14T13:04:36;23.40;90.50
12013;DHT22;6065;48.138;16.402;2023-06-14T13:07:03;23.30;90.40
12013;DHT22;6065;48.138;16.402;2023-06-14T13:09:29;23.30;90.40
12013;DHT22;6065;48.138;16.402;2023-06-14T13:11:56;23.30;89.90
12013;DHT22;6065;48.138;16.402;2023-06-14T13:14:23;23.20;90.10
12013;DHT22;6065;48.138;16.402;2023-06-14T13:16:50;23.10;90.80
12013;DHT22;6065;48.138;16.402;2023-06-14T13:19:18;23.10;90.70
12013;DHT22;6065;48.138;16.402;2023-06-14T13:21:45;23.00;90.80
12013;DHT22;6065;48.138;16.402;2023-06-14T13:24:11;23.00;90.60
12013;DHT22;6065;48.138;16.402;2023-06-14T13:26:38;23.00;90.40
12013;DHT22;6065;48.138;16.402;2023-06-14T13:29:05;22.90;90.60
12013;DHT22;6065;48.138;16.402;2023-06-14T13:31:31;22.80;90.50
12013;DHT22;6065;48.138;16.402;2023-06-14T13:33:58;22.70;90.20
12013;DHT22;6065;48.138;16.402;2023-06-14T13:36:27;22.70;90.40
12013;DHT22;6065;48.138;16.402;2023-06-14T13:38:55;22.70;91.10
12013;DHT22;6065;48.138;16.402;2023-06-14T13:41:25;22.70;90.80
12013;DHT22;6065;48.138;16.402;2023-06-14T13:43:56;22.80;91.60
12013;DHT22;6065;48.138;16.402;2023-06-14T13:46:23;22.90;91.80
12013;DHT22;6065;48.138;16.402;2023-06-14T13:48:50;23.00;91.40
12013;DHT22;6065;48.138;16.402;2023-06-14T13:51:17;23.20;90.70
12013;DHT22;6065;48.138;16.402;2023-06-14T13:53:47;23.20;90.00
12013;DHT22;6065;48.138;16.402;2023-06-14T13:56:14;23.20;90.30
12013;DHT22;6065;48.138;16.402;2023-06-14T13:58:40;23.30;90.80
12013;DHT22;6065;48.138;16.402;2023-06-14T14:01:07;23.30;91.00
12013;DHT22;6065;48.138;16.402;2023-06-14T14:03:34;23.40;91.10
12013;DHT22;6065;48.138;16.402;2023-06-14T14:06:01;23.30;90.90
12013;DHT22;6065;48.138;16.402;2023-06-14T14:08:27;23.30;91.00
12013;DHT22;6065;48.138;16.402;2023-06-14T14:10:55;23.30;90.80
12013;DHT22;6065;48.138;16.402;2023-06-14T14:13:22;23.20;90.70
12013;DHT22;6065;48.138;16.402;2023-06-14T14:15:50;23.30;91.30
12013;DHT22;6065;48.138;16.402;2023-06-14T14:18:17;23.40;90.80
12013;DHT22;6065;48.138;16.402;2023-06-14T14:20:46;23.40;90.60
12013;DHT22;6065;48.138;16.402;2023-06-14T14:23:12;23.40;89.80
12013;DHT22;6065;48.138;16.402;2023-06-14T14:25:39;23.30;89.80
12013;DHT22;6065;48.138;16.402;2023-06-14T14:28:07;23.40;90.00
12013;DHT22;6065;48.138;16.402;2023-06-14T14:30:34;23.40;89.50
12013;DHT22;6065;48.138;16.402;2023-06-14T14:33:03;23.40;89.20
12013;DHT22;6065;48.138;16.402;2023-06-14T14:35:30;23.40;88.10
12013;DHT22;6065;48.138;16.402;2023-06-14T14:37:57;23.40;88.40
12013;DHT22;6065;48.138;16.402;2023-06-14T14:40:24;23.40;88.30
12013;DHT22;6065;48.138;16.402;2023-06-14T14:42:50;23.40;88.20
12013;DHT22;6065;48.138;16.402;2023-06-14T14:45:18;23.50;88.10
12013;DHT22;6065;48.138;16.402;2023-06-14T14:47:45;23.50;88.00
12013;DHT22;6065;48.138;16.402;2023-06-14T14:50:12;23.60;87.70
12013;DHT22;6065;48.138;16.402;2023-06-14T14:52:38;23.60;88.50
12013;DHT22;6065;48.138;16.402;2023-06-14T14:55:06;23.60;88.00
12013;DHT22;6065;48.138;16.402;2023-06-14T14:57:32;23.60;87.60
12013;DHT22;6065;48.138;16.402;2023-06-14T15:00:02;23.70;87.20
12013;DHT22;6065;48.138;16.402;2023-06-14T15:02:30;23.70;87.90
12013;DHT22;6065;48.138;16.402;2023-06-14T15:04:57;23.60;85.60
12013;DHT22;6065;48.138;16.402;2023-06-14T15:07:26;23.50;86.00
12013;DHT22;6065;48.138;16.402;2023-06-14T15:09:53;23.40;87.30
12013;DHT22;6065;48.138;16.402;2023-06-14T15:12:19;23.40;87.80
12013;DHT22;6065;48.138;16.402;2023-06-14T15:14:49;23.30;87.90
12013;DHT22;6065;48.138;16.402;2023-06-14T15:17:16;23.40;88.60
12013;DHT22;6065;48.138;16.402;2023-06-14T15:19:44;23.40;89.80
12013;DHT22;6065;48.138;16.402;2023-06-14T15:22:11;23.40;89.30
12013;DHT22;6065;48.138;16.402;2023-06-14T15:24:38;23.50;88.50
12013;DHT22;6065;48.138;16.402;2023-06-14T15:27:05;23.50;88.50
12013;DHT22;6065;48.138;16.402;2023-06-14T15:29:32;23.50;88.70
12013;DHT22;6065;48.138;16.402;2023-06-14T15:31:59;23.50;88.70
12013;DHT22;6065;48.138;16.402;2023-06-14T15:34:28;23.50;88.80